WIOO/PNK METAR and TAF weather

Enter ICAO airport designator
Station Type Date Time Source
WIOO METAR 2021/05/17 22:30 UTC NOAA

WIOO 172230Z 00000KT 7000 FEW012 24/24 Q1008 NOSIG


Station Type Date Time Source
WIOO Decoded METAR 2021/05/17 22:30 UTC NOAA

Pontianak / Supadio, Indonesia (WIOO) 00-09S 109-24E 3M
May 17, 2021 - 06:30 PM EDT / 2021.05.17 2230 UTC
Wind: Calm:0
Visibility: 4 mile(s):0
Sky conditions: mostly clear
Temperature: 75 F (24 C)
Dew Point: 75 F (24 C)
Relative Humidity: 100%
Pressure (altimeter): 29.77 in. Hg (1008 hPa)
ob: WIOO 172230Z 00000KT 7000 FEW012 24/24 Q1008 NOSIG
cycle: 22

Station Type Date Time Source
WIOO TAF 2014/03/26 00:51 UTC NOAA

TAF TAF WIOO 252300Z 2600/2624 10002KT 7000 SCT011
BECMG 2601/2603 08005KT 9999
TEMPO 2607/2610 15010KT 3000

Example: see airport list